Henderson, Nevada Weather observations

Data are for observation ending at time listed.
 Day   Time    Ave.   Ave.  Ave.  Vector   Max.   Stn.    Total    Solar   Ave.  
  of    of     Air    Rel.  Wind   Wind    Wind   Baro.  Precip.   Rad.    Soil  
Year   Day     Temp.  Hum.  Speed  Dir.    Gust   Pres.                    Temp. 
2014   (PST)    F      %     mph   deg.    mph     mb.     in.     W/m2     F   
------------------------------------------------------------------------------
 331    3:00   45.9    33    1.3   189      3.0   947.3    0.00       0    39.3
 331    3:10   45.9    34    1.5   213      3.1   947.3    0.00       0    39.4
 331    3:20   45.9    33    2.5   192      3.7   947.3    0.00       0    39.5
 331    3:30   46.9    32    1.6   199      4.2   947.3    0.00       0    39.8
 331    3:40   46.0    34    1.0   192      1.8   947.3    0.00       0    39.9
 331    3:50   44.7    35    1.4   183      3.9   947.2    0.00       0    39.7
 331    4:00   44.7    34    0.8   190      2.4   947.1    0.00       0    39.5
 331    4:10   45.4    33    1.0   195      3.0   947.1    0.00       0    39.4
 331    4:20   45.3    34    0.5   202      1.8   947.2    0.00       0    39.3
 331    4:30   45.9    33    2.0   198      4.1   947.1    0.00       0    39.3
 331    4:40   45.6    34    1.8   200      3.1   947.2    0.00       0    39.4
 331    4:50   44.4    35    1.2   195      2.6   947.2    0.00       0    39.3
 331    5:00   43.9    36    0.2   201      1.5   947.2    0.00       0    39.1
 331    5:10   43.9    36    1.2   193      3.2   947.2    0.00       0    38.8
 331    5:20   44.9    35    1.1   199      2.3   947.2    0.00       0    38.8
 331    5:30   45.1    34    2.7   195      4.1   947.4    0.00       0    38.8
 331    5:40   43.6    37    0.8   209      2.6   947.7    0.00       0    38.9
 331    5:50   42.7    39    0.5    60      3.1   947.7    0.00       0    38.6
 331    6:00   43.2    38    0.5   122      1.2   947.7    0.00       0    38.4
 331    6:10   42.1    40    0.5   223      1.8   947.8    0.00       0    38.1
 331    6:20   41.9    40    0.9   211      2.3   947.8    0.00       2    37.8
 331    6:30   41.8    40    1.4   198      3.0   947.7    0.00       9    37.6
 331    6:40   42.9    40    0.6   201      1.8   947.6    0.00      20    37.6
 331    6:50   43.7    38    0.4   209      2.8   947.6    0.00      36    37.9
 331    7:00   46.5    34    1.5   196      3.4   947.6    0.00      66    39.2
 331    7:10   49.5    31    0.8   189      2.4   947.7    0.00      73    42.5
 331    7:20   49.5    31    0.8   233      2.1   947.7    0.00      87    45.7
 331    7:30   51.2    30    0.8   103      2.6   947.7    0.00      81    48.1
 331    7:40   52.5    28    0.1   164      1.2   947.9    0.00      93    49.5
 331    7:50   53.4    27    0.5   286      1.4   947.9    0.00     107    50.0
 331    8:00   53.5    26    0.3   219      1.2   947.9    0.00     185    50.0
 331    8:10   53.7    26    0.7   112      1.4   947.9    0.00     203    50.3
 331    8:20   54.2    25    1.0   127      2.5   947.9    0.00     300    50.9
 331    8:30   55.0    25    1.4   105      2.3   947.9    0.00     316    51.3
 331    8:40   56.2    24    0.8   121      1.9   947.9    0.00     373    52.2
 331    8:50   57.5    23    1.0   118      2.2   947.9    0.00     411    52.8
 331    9:00   58.5    22    0.7   121      2.0   947.9    0.00     455    54.0
 331    9:10   60.8    20    0.6   121      2.0   947.8    0.00     510    55.5
 331    9:20   61.1    20    1.7   346      3.8   947.9    0.00     570    59.0
 331    9:30   61.0    22    2.4   322      5.2   947.9    0.00     544    63.9
 331    9:40   59.3    26    2.7   315      4.7   947.9    0.00     432    65.4
 331    9:50   59.9    25    1.8   318      3.5   947.9    0.00     618    66.7
 331   10:00   61.6    23    2.1   320      4.2   947.9    0.00     690    69.6
 331   10:10   62.1    21    2.0   328      3.4   947.7    0.00     677    71.8
 331   10:20   62.3    20    2.2   328      4.6   947.5    0.00     403    71.7
 331   10:30   61.2    21    2.5   323      4.5   947.4    0.00     311    69.2
 331   10:40   61.2    21    2.4   326      4.5   947.3    0.00     616    67.6
 331   10:50   62.2    20    2.0   332      4.4   947.1    0.00     473    67.3
 331   11:00   61.8    20    2.2   324      4.2   946.9    0.00     344    66.2
 331   11:10   61.3    21    2.3   311      4.2   946.8    0.00     299    64.8
 331   11:20   61.1    22    2.3   319      4.6   946.7    0.00     260    63.9
 331   11:30   61.2    22    1.9   324      3.9   946.5    0.00     289    63.5
 331   11:40   61.9    22    0.6   268      1.8   946.2    0.00     347    63.4
 331   11:50   62.9    21    0.4   294      1.4   945.9    0.00     330    63.8
 331   12:00   63.7    19    0.4   310      1.4   945.7    0.00     283    64.1
 331   12:10   64.1    19    0.7   314      2.0   945.6    0.00     236    64.1
 331   12:20   63.9    20    1.7   311      2.9   945.5    0.00     230    64.1
 331   12:30   63.8    19    1.9   318      3.8   945.4    0.00     243    64.1
 331   12:40   63.2    20    2.1   295      4.2   945.3    0.00     254    64.1
 331   12:50   63.4    20    1.7   302      3.2   945.2    0.00     243    64.1
 331   13:00   63.7    20    0.9   284      2.1   945.0    0.00     237    64.1
 331   13:10   63.9    18    0.7   289      2.2   944.8    0.00     228    64.1
 331   13:20   64.5    18    0.1   208      0.9   944.6    0.00     210    64.1
 331   13:30   64.5    18    0.9   291      1.8   944.5    0.00     197    64.1
 331   13:40   64.2    18    1.5   310      2.7   944.5    0.00     203    64.0
 331   13:50   64.1    18    0.5   271      1.5   944.4    0.00     210    64.0
 331   14:00   64.3    18    1.0   288      2.0   944.3    0.00     215    63.9
 331   14:10   64.4    19    1.2   313      2.7   944.2    0.00     229    63.9
 331   14:20   64.2    18    1.8   294      3.1   944.2    0.00     198    63.9
 331   14:30   64.0    19    1.3   305      2.8   944.2    0.00     176    63.7
 331   14:40   63.9    20    1.3   318      2.6   944.1    0.00     167    63.4
 331   14:50   63.8    20    1.2   316      2.7   944.1    0.00     133    63.2
 331   15:00   63.7    19    1.4   322      2.6   944.1    0.00     111    62.8
 331   15:10   63.3    20    1.1   304      1.9   944.1    0.00      94    62.4
 331   15:20   63.1    21    0.2   310      1.2   944.0    0.00      80    61.9
 331   15:30   62.5    22    0.0     0      0.0   943.9    0.00      74    61.3
 331   15:40   62.3    22    0.0     0      0.0   943.9    0.00      74    60.6
 331   15:50   61.7    23    0.0     0      0.0   943.9    0.00      65    59.8
 331   16:00   61.1    23    0.1   116      0.7   943.8    0.00      50    58.9
 331   16:10   60.4    23    0.5   126      1.2   943.6    0.00      37    58.0
 331   16:20   59.8    24    0.2   206      1.5   943.6    0.00      20    57.1
 331   16:30   58.8    25    0.6   164      1.3   943.6    0.00       7    56.1
 331   16:40   58.2    25    0.8   174      1.5   943.5    0.00       7    55.2
 331   16:50   57.9    27    1.2   199      2.4   943.5    0.00       1    54.4
 331   17:00   57.3    27    1.6   188      2.9   943.5    0.00       0    53.7
 331   17:10   57.0    27    1.7   184      3.3   943.4    0.00       0    53.0
 331   17:20   56.7    27    1.8   192      3.4   943.4    0.00       0    52.4
 331   17:30   56.3    27    2.6   190      4.6   943.4    0.00       0    51.9
 331   17:40   55.9    28    1.4   201      2.9   943.4    0.00       0    51.4
 331   17:50   55.3    27    1.9   198      3.0   943.4    0.00       0    50.9
 331   18:00   55.0    27    2.1   196      2.9   943.4    0.00       0    50.5
 331   18:10   54.7    27    2.6   195      3.6   943.4    0.00       0    50.1
 331   18:20   54.2    28    2.1   195      3.7   943.4    0.00       0    49.7
 331   18:30   53.8    28    2.6   194      3.7   943.4    0.00       0    49.2
 331   18:40   53.5    28    1.4   195      3.2   943.3    0.00       0    48.8
 331   18:50   53.1    28    1.7   198      3.2   943.3    0.00       0    48.4
 331   19:00   52.6    29    0.4   194      2.0   943.2    0.00       0    48.1
 331   19:10   51.4    30    0.0     0      0.0   943.2    0.00       0    47.5
 331   19:20   50.6    31    0.8   195      2.7   943.3    0.00       0    46.8
 331   19:30   50.7    31    1.6   194      3.1   943.3    0.00       0    46.3
 331   19:40   51.2    31    2.2   198      3.0   943.4    0.00       0    45.9
 331   19:50   51.7    30    1.4   197      3.2   943.3    0.00       0    45.7
 331   20:00   50.1    32    1.1   208      2.7   943.3    0.00       0    45.4
 331   20:10   48.5    34    0.8   222      1.5   943.3    0.00       0    45.0
 331   20:20   48.9    34    0.8   191      2.1   943.3    0.00       0    44.6
 331   20:30   48.9    33    1.0   187      2.4   943.3    0.00       0    44.1
 331   20:40   48.8    34    1.6   190      2.7   943.2    0.00       0    43.7
 331   20:50   49.9    32    2.6   192      3.6   943.2    0.00       0    43.6
 331   21:00   50.4    31    2.3   191      3.9   943.2    0.00       0    43.7
 331   21:10   49.9    32    1.3   185      3.1   943.2    0.00       0    43.8
 331   21:20   50.2    31    2.4   193      3.7   943.2    0.00       0    43.8
 331   21:30   50.0    31    2.2   194      3.4   943.2    0.00       0    43.8
 331   21:40   49.4    32    0.3   204      2.1   943.1    0.00       0    43.7
 331   21:50   48.1    34    0.9   192      2.2   943.1    0.00       0    43.4
 331   22:00   48.1    34    1.7   192      3.0   943.0    0.00       0    43.0
 331   22:10   48.2    34    0.1   199      1.7   943.0    0.00       0    42.8
 331   22:20   47.4    35    1.8   186      2.9   943.0    0.00       0    42.5
 331   22:30   47.8    34    1.7   190      3.4   943.0    0.00       0    42.3
 331   22:40   47.9    34    0.6   187      3.5   943.0    0.00       0    42.2
 331   22:50   47.2    35    1.9   193      3.5   943.0    0.00       0    41.9
 331   23:00   47.5    34    0.9   187      3.2   943.0    0.00       0    41.7
 331   23:10   46.4    36    1.8   191      3.1   942.8    0.00       0    41.5
 331   23:20   47.4    34    2.1   191      3.4   942.8    0.00       0    41.4
 331   23:30   47.6    34    1.9   194      3.4   942.7    0.00       0    41.4
 331   23:40   47.3    34    2.2   194      3.6   942.6    0.00       0    41.3
 331   23:50   46.7    35    0.5   190      2.3   942.5    0.00       0    41.2
 332    0:00   46.0    36    0.5   180      2.5   942.4    0.00       0    40.9
 332    0:10   45.7    37    0.6   178      2.8   942.3    0.00       0    40.6
 332    0:20   45.8    37    1.0   195      2.7   942.3    0.00       0    40.3
 332    0:30   46.3    36    1.5   190      3.6   942.2    0.00       0    40.2
 332    0:40   46.0    38    0.2   232      1.1   942.1    0.00       0    40.1
 332    0:50   44.6    40    0.8   200      2.5   942.0    0.00       0    39.9
 332    1:00   44.8    39    2.0   192      3.2   942.0    0.00       0    39.7
 332    1:10   46.0    37    2.6   190      4.3   942.0    0.00       0    39.6
 332    1:20   46.9    36    1.6   205      4.3   942.0    0.00       0    39.9
 332    1:30   46.9    35    3.2   196      4.6   942.0    0.00       0    40.1
 332    1:40   46.7    36    2.9   193      4.2   942.0    0.00       0    40.2
 332    1:50   46.5    36    2.8   190      4.1   942.0    0.00       0    40.3
 332    2:00   46.5    36    2.8   189      4.1   941.9    0.00       0    40.3
 332    2:10   46.7    35    3.2   191      4.7   941.9    0.00       0    40.4
 332    2:20   46.7    35    1.5   186      3.7   941.9    0.00       0    40.4
 332    2:30   46.2    36    2.5   193      4.8   941.9    0.00       0    40.3
 332    2:40   44.9    38    1.9   200      3.7   941.9    0.00       0    40.1
 332    2:50   44.8    37    1.4   189      3.4   941.8    0.00       0    39.8

Return to Henderson, Nevada graphs page.


Western Regional Climate Center,wrcc@dri.edu